createdAt,value
2023-11-18T00:00:39.381Z,4.68
2023-11-18T00:04:28.101Z,8.15
2023-11-18T00:07:53.218Z,8.52
2023-11-18T00:10:57.531Z,7.15
2023-11-18T00:14:01.601Z,9.45
2023-11-18T00:17:06.405Z,7.10
2023-11-18T00:20:18.031Z,9.07
2023-11-18T00:23:22.518Z,7.88
2023-11-18T00:26:27.943Z,8.00
2023-11-18T00:29:39.343Z,7.75
2023-11-18T00:32:46.400Z,8.35
2023-11-18T00:35:51.239Z,6.75
2023-11-18T00:38:55.202Z,15.13
2023-11-18T00:41:59.505Z,22.13
2023-11-18T00:45:03.748Z,20.95
2023-11-18T00:48:10.192Z,15.90
2023-11-18T00:51:14.766Z,30.77
2023-11-18T00:54:18.915Z,23.53
2023-11-18T00:57:23.173Z,55.47
2023-11-18T01:00:28.703Z,150.18
2023-11-18T01:03:32.838Z,271.92
2023-11-18T01:06:36.446Z,288.70
2023-11-18T01:09:44.385Z,413.48
2023-11-18T01:13:05.935Z,362.02
2023-11-18T01:17:15.039Z,272.88
2023-11-18T01:20:47.950Z,286.23
2023-11-18T01:24:51.282Z,14.15
2023-11-18T01:28:36.269Z,10.05
2023-11-18T01:35:14.646Z,6.35
2023-11-18T01:38:48.697Z,6.68
2023-11-18T01:42:36.863Z,9.60
2023-11-18T01:45:53.385Z,18.80
2023-11-18T01:49:39.745Z,21.95
2023-11-18T01:53:09.350Z,18.23
2023-11-18T01:59:53.511Z,14.15
2023-11-18T02:02:59.456Z,9.38
2023-11-18T02:06:27.813Z,20.88
2023-11-18T02:09:34.055Z,8.90
2023-11-18T02:13:08.069Z,12.07
2023-11-18T02:16:12.928Z,8.48
2023-11-18T02:19:22.177Z,6.77
2023-11-18T02:22:29.449Z,12.32
2023-11-18T02:28:39.121Z,12.95
2023-11-18T02:31:44.243Z,7.57
2023-11-18T02:34:53.391Z,6.37
2023-11-18T02:37:58.709Z,8.32
2023-11-18T02:41:04.988Z,5.00
2023-11-18T02:44:12.492Z,5.03
2023-11-18T02:47:18.386Z,7.45
2023-11-18T02:53:29.812Z,4.63
2023-11-18T02:56:33.654Z,5.30
2023-11-18T02:59:38.106Z,5.53
2023-11-18T03:02:42.033Z,4.78
2023-11-18T03:05:46.150Z,6.55
2023-11-18T03:08:49.622Z,9.32
2023-11-18T03:11:53.532Z,5.30
2023-11-18T03:15:17.092Z,6.15
2023-11-18T03:18:43.200Z,5.07
2023-11-18T03:22:40.131Z,4.07
2023-11-18T03:26:06.397Z,6.63
2023-11-18T03:29:36.952Z,11.00
2023-11-18T03:33:12.794Z,3.92
2023-11-18T03:36:39.839Z,5.28
2023-11-18T03:39:56.621Z,5.35
2023-11-18T03:43:53.226Z,3.95
2023-11-18T03:46:57.036Z,4.53
2023-11-18T03:50:15.537Z,4.53
2023-11-18T03:53:56.393Z,4.82
2023-11-18T03:57:39.182Z,3.35
2023-11-18T04:01:34.336Z,2.83
2023-11-18T04:05:10.655Z,4.40
2023-11-18T04:12:14.460Z,6.03
2023-11-18T04:15:36.030Z,4.90
2023-11-18T04:19:03.412Z,5.13
2023-11-18T04:22:07.377Z,6.78
2023-11-18T04:25:12.563Z,7.55
2023-11-18T04:28:16.074Z,5.38
2023-11-18T04:31:19.820Z,4.93
2023-11-18T04:34:23.523Z,10.25
2023-11-18T04:37:30.418Z,5.43
2023-11-18T04:40:34.454Z,5.90
2023-11-18T04:43:44.910Z,6.55
2023-11-18T04:46:50.441Z,9.43
2023-11-18T04:49:56.793Z,11.90
2023-11-18T04:53:01.700Z,6.13
2023-11-18T04:56:13.056Z,8.65
2023-11-18T04:59:19.171Z,8.15
2023-11-18T05:02:29.675Z,5.63
2023-11-18T05:05:41.757Z,6.75
2023-11-18T05:08:52.245Z,9.60
2023-11-18T05:12:03.544Z,10.35
2023-11-18T05:15:09.925Z,7.25
2023-11-18T05:18:17.131Z,52.35
2023-11-18T05:21:21.227Z,14.80
2023-11-18T05:24:25.612Z,10.90
2023-11-18T05:27:50.010Z,13.15
2023-11-18T05:31:10.758Z,22.60
2023-11-18T05:34:17.342Z,18.45
2023-11-18T05:37:21.107Z,23.17
2023-11-18T05:40:27.801Z,12.15
2023-11-18T05:44:08.820Z,11.65
2023-11-18T05:47:17.703Z,20.52
2023-11-18T05:51:55.538Z,24.88
2023-11-18T05:54:32.397Z,9.95
2023-11-18T05:57:46.007Z,10.38
2023-11-18T06:01:11.506Z,39.38
2023-11-18T06:04:26.560Z,7.88
2023-11-18T06:07:48.129Z,19.85
2023-11-18T06:11:01.206Z,61.22
2023-11-18T06:14:14.736Z,17.33
2023-11-18T06:17:56.709Z,35.47
2023-11-18T06:21:11.678Z,23.73
2023-11-18T06:24:44.871Z,30.60
2023-11-18T06:28:47.806Z,28.08
2023-11-18T06:35:44.745Z,24.58
2023-11-18T06:39:16.879Z,27.55
2023-11-18T06:43:02.813Z,15.90
2023-11-18T06:46:44.564Z,11.90
2023-11-18T06:50:03.983Z,14.93
2023-11-18T06:54:08.534Z,12.73
2023-11-18T06:57:23.247Z,44.70
2023-11-18T07:04:41.144Z,9.88
2023-11-18T07:08:30.033Z,14.43
2023-11-18T07:12:28.025Z,16.23
2023-11-18T07:15:39.485Z,15.55
2023-11-18T07:22:37.171Z,18.00
2023-11-18T07:26:22.345Z,14.73
2023-11-18T07:30:04.883Z,15.88
2023-11-18T07:39:20.698Z,12.68
2023-11-18T07:49:41.822Z,17.20
2023-11-18T07:53:18.611Z,19.25
2023-11-18T07:56:36.575Z,9.77
2023-11-18T08:00:50.641Z,15.15
2023-11-18T08:03:25.065Z,11.63
2023-11-18T08:07:02.050Z,12.23
2023-11-18T08:10:12.431Z,19.75
2023-11-18T08:13:28.840Z,10.63
2023-11-18T08:16:35.041Z,15.05
2023-11-18T08:19:42.718Z,12.15
2023-11-18T08:22:53.159Z,13.63
2023-11-18T08:26:04.752Z,13.00
2023-11-18T08:29:14.759Z,16.65
2023-11-18T08:32:19.380Z,14.90
2023-11-18T08:35:24.131Z,13.43
2023-11-18T08:38:29.964Z,13.67
2023-11-18T08:41:34.001Z,16.05
2023-11-18T08:44:38.061Z,17.05
2023-11-18T08:47:44.694Z,13.45
2023-11-18T08:50:49.206Z,9.57
2023-11-18T08:53:57.160Z,11.27
2023-11-18T08:57:00.813Z,8.73
2023-11-18T09:00:11.042Z,9.88
2023-11-18T09:03:39.638Z,14.20
2023-11-18T09:06:44.028Z,12.75
2023-11-18T09:09:54.270Z,12.80
2023-11-18T09:13:05.872Z,10.55
2023-11-18T09:16:13.860Z,11.45
2023-11-18T09:19:23.077Z,9.93
2023-11-18T09:22:37.630Z,10.63
2023-11-18T09:26:15.856Z,8.68
2023-11-18T09:29:33.843Z,8.10
2023-11-18T09:32:56.916Z,9.57
2023-11-18T09:36:07.798Z,7.03
2023-11-18T09:39:41.899Z,7.13
2023-11-18T09:42:59.412Z,9.32
2023-11-18T09:46:15.020Z,9.55
2023-11-18T09:49:42.760Z,5.68
2023-11-18T09:52:55.444Z,5.95
2023-11-18T09:56:02.357Z,8.80
2023-11-18T09:59:18.865Z,9.48
2023-11-18T10:02:26.669Z,9.13
2023-11-18T10:05:32.288Z,12.30
2023-11-18T10:08:40.374Z,23.58
2023-11-18T10:11:51.049Z,53.25
2023-11-18T10:14:55.603Z,15.43
2023-11-18T10:18:08.759Z,12.38
2023-11-18T10:21:48.698Z,8.88
2023-11-18T10:25:28.409Z,8.10
2023-11-18T10:28:56.461Z,22.40
2023-11-18T10:36:26.714Z,12.55
2023-11-18T10:39:34.218Z,14.50
2023-11-18T10:42:42.028Z,12.30
2023-11-18T10:45:49.227Z,10.68
2023-11-18T10:48:53.996Z,7.28
2023-11-18T10:51:59.508Z,9.20
2023-11-18T10:55:14.546Z,7.28
2023-11-18T10:58:20.249Z,9.38
2023-11-18T11:01:34.065Z,11.45
2023-11-18T11:04:48.675Z,13.25
2023-11-18T11:07:54.222Z,13.30
2023-11-18T11:11:02.614Z,13.80
2023-11-18T11:14:09.282Z,12.38
2023-11-18T11:17:19.830Z,15.00
2023-11-18T11:20:33.559Z,13.45
2023-11-18T11:23:59.928Z,14.45
2023-11-18T11:27:30.772Z,36.00
2023-11-18T11:31:06.133Z,38.58
2023-11-18T11:34:22.682Z,26.33
2023-11-18T11:37:28.313Z,41.30
2023-11-18T11:40:36.686Z,20.13
2023-11-18T11:43:43.148Z,16.40
2023-11-18T11:46:54.985Z,30.50
2023-11-18T11:50:12.700Z,18.27
2023-11-18T11:53:29.562Z,12.98
2023-11-18T11:57:03.343Z,10.98
2023-11-18T12:00:17.753Z,9.38
2023-11-18T12:03:27.799Z,15.35
2023-11-18T12:06:32.618Z,12.73
2023-11-18T12:09:40.116Z,10.03
2023-11-18T12:12:44.392Z,13.00
2023-11-18T12:16:06.259Z,10.90
2023-11-18T12:19:28.896Z,12.32
2023-11-18T12:22:53.038Z,20.98
2023-11-18T12:25:58.869Z,14.30
2023-11-18T12:32:14.822Z,12.95
2023-11-18T12:35:19.246Z,10.82
2023-11-18T12:38:42.329Z,16.95
2023-11-18T12:42:16.500Z,11.27
2023-11-18T12:46:18.983Z,9.02
2023-11-18T12:49:27.180Z,10.55
2023-11-18T12:52:39.913Z,9.65
2023-11-18T12:55:50.371Z,10.10
2023-11-18T12:59:08.324Z,15.48
2023-11-18T13:02:35.745Z,9.98
2023-11-18T13:06:12.398Z,9.85
2023-11-18T13:13:05.434Z,9.18
2023-11-18T13:19:35.868Z,10.05
2023-11-18T13:22:49.014Z,9.43
2023-11-18T13:26:06.234Z,9.13
2023-11-18T13:29:27.483Z,8.00
2023-11-18T13:32:50.368Z,22.13
2023-11-18T13:36:25.436Z,13.57
2023-11-18T13:39:37.845Z,36.28
2023-11-18T13:42:57.494Z,32.58
2023-11-18T13:46:03.621Z,12.38
2023-11-18T13:49:18.184Z,11.25
2023-11-18T13:52:38.999Z,11.63
2023-11-18T13:55:51.879Z,7.35
2023-11-18T13:59:11.872Z,5.80
2023-11-18T14:02:26.946Z,4.80
2023-11-18T14:05:31.198Z,5.47
2023-11-18T14:08:51.606Z,4.85
2023-11-18T14:12:04.898Z,3.65
2023-11-18T14:15:21.792Z,5.28
2023-11-18T14:19:01.116Z,4.68
2023-11-18T14:22:34.029Z,4.00
2023-11-18T14:25:57.706Z,3.88
2023-11-18T14:29:10.433Z,4.20
2023-11-18T14:32:21.069Z,3.78
2023-11-18T14:35:31.426Z,8.80
2023-11-18T14:38:47.583Z,10.60
2023-11-18T14:42:04.295Z,8.52
2023-11-18T14:45:12.756Z,9.10
2023-11-18T14:48:49.699Z,12.63
2023-11-18T14:52:10.168Z,5.57
2023-11-18T14:55:20.204Z,4.05
2023-11-18T14:58:42.612Z,6.55
2023-11-18T15:02:04.934Z,4.45
2023-11-18T15:05:24.500Z,3.20
2023-11-18T15:08:35.342Z,4.45
2023-11-18T15:11:45.411Z,3.42
2023-11-18T15:14:59.365Z,4.82
2023-11-18T15:18:32.605Z,4.50
2023-11-18T15:22:01.955Z,4.32
2023-11-18T15:25:16.162Z,5.45
2023-11-18T15:28:34.533Z,12.05
2023-11-18T15:31:52.571Z,19.33
2023-11-18T15:35:06.046Z,7.57
2023-11-18T15:38:20.336Z,3.67
2023-11-18T15:41:37.351Z,3.80
2023-11-18T15:45:20.118Z,3.67
2023-11-18T15:48:28.413Z,158.25
2023-11-18T15:51:37.646Z,7.78
2023-11-18T15:54:51.525Z,19.05
2023-11-18T15:58:21.219Z,13.32
2023-11-18T16:01:36.726Z,24.42
2023-11-18T16:04:53.700Z,22.75
2023-11-18T16:08:09.080Z,36.58
2023-11-18T16:11:23.642Z,16.08
2023-11-18T16:15:02.434Z,16.33
2023-11-18T16:18:36.451Z,7.93
2023-11-18T16:21:48.933Z,9.68
2023-11-18T16:25:24.795Z,8.27
2023-11-18T16:29:35.977Z,9.93
2023-11-18T16:36:07.094Z,9.02
2023-11-18T16:39:14.527Z,9.15
2023-11-18T16:42:21.948Z,44.45
2023-11-18T16:45:52.311Z,21.25
2023-11-18T16:49:10.074Z,11.75
2023-11-18T16:52:32.882Z,20.27
2023-11-18T16:59:16.011Z,9.73
2023-11-18T17:02:40.779Z,9.13
2023-11-18T17:05:45.454Z,13.25
2023-11-18T17:08:52.495Z,15.23
2023-11-18T17:12:04.911Z,33.95
2023-11-18T17:15:38.012Z,8.90
2023-11-18T17:18:52.675Z,9.88
2023-11-18T17:22:27.918Z,6.47
2023-11-18T17:25:39.297Z,9.45
2023-11-18T17:28:44.926Z,7.13
2023-11-18T17:31:52.046Z,7.15
2023-11-18T17:35:16.550Z,20.02
2023-11-18T17:38:31.164Z,9.52
2023-11-18T17:41:51.037Z,17.67
2023-11-18T17:45:04.504Z,15.45
2023-11-18T17:48:12.812Z,10.45
2023-11-18T17:51:28.776Z,11.63
2023-11-18T17:54:49.782Z,20.52
2023-11-18T17:57:55.588Z,13.30
2023-11-18T18:01:23.910Z,9.02
2023-11-18T18:04:46.432Z,24.17
2023-11-18T18:08:04.676Z,8.02
2023-11-18T18:11:15.028Z,10.23
2023-11-18T18:14:45.936Z,10.98
2023-11-18T18:17:57.880Z,7.70
2023-11-18T18:21:22.634Z,52.63
2023-11-18T18:28:25.560Z,8.35
2023-11-18T18:31:38.237Z,10.65
2023-11-18T18:35:16.798Z,11.40
2023-11-18T18:38:42.198Z,25.92
2023-11-18T18:42:17.978Z,16.90
2023-11-18T18:45:27.514Z,23.10
2023-11-18T18:48:50.328Z,26.80
2023-11-18T18:52:35.850Z,13.32
2023-11-18T18:55:55.530Z,10.27
2023-11-18T18:59:23.089Z,7.75
2023-11-18T19:02:38.670Z,8.13
2023-11-18T19:05:43.195Z,10.20
2023-11-18T19:08:48.236Z,8.90
2023-11-18T19:11:52.281Z,16.33
2023-11-18T19:14:56.303Z,9.05
2023-11-18T19:18:02.507Z,9.00
2023-11-18T19:21:06.416Z,12.65
2023-11-18T19:24:15.937Z,7.57
2023-11-18T19:27:29.172Z,11.57
2023-11-18T19:30:33.214Z,11.52
2023-11-18T19:33:37.345Z,10.52
2023-11-18T19:36:44.951Z,17.20
2023-11-18T19:39:56.066Z,14.63
2023-11-18T19:43:08.357Z,13.35
2023-11-18T19:46:15.063Z,28.90
2023-11-18T19:49:24.907Z,12.95
2023-11-18T19:52:40.414Z,15.77
2023-11-18T19:55:57.249Z,8.50
2023-11-18T19:59:06.993Z,10.55
2023-11-18T20:02:11.435Z,11.00
2023-11-18T20:05:21.616Z,9.27
2023-11-18T20:08:41.650Z,7.50
2023-11-18T20:11:54.747Z,6.03
2023-11-18T20:15:22.554Z,7.40
2023-11-18T20:18:33.345Z,8.05
2023-11-18T20:21:50.402Z,8.57
2023-11-18T20:25:02.600Z,12.70
2023-11-18T20:28:20.861Z,10.15
2023-11-18T20:31:40.158Z,10.63
2023-11-18T20:35:03.135Z,9.90
2023-11-18T20:38:16.914Z,11.68
2023-11-18T20:41:35.377Z,8.93
2023-11-18T20:44:57.047Z,9.75
2023-11-18T20:48:13.614Z,13.60
2023-11-18T20:51:27.005Z,13.90
2023-11-18T20:54:47.978Z,21.88
2023-11-18T20:58:13.919Z,11.68
2023-11-18T21:01:31.001Z,13.15
2023-11-18T21:04:55.872Z,33.97
2023-11-18T21:08:44.989Z,39.60
2023-11-18T21:12:17.432Z,10.90
2023-11-18T21:16:03.800Z,9.25
2023-11-18T21:19:25.431Z,12.77
2023-11-18T21:22:38.680Z,19.42
2023-11-18T21:26:00.884Z,19.42
2023-11-18T21:29:41.700Z,15.38
2023-11-18T21:33:25.032Z,13.02
2023-11-18T21:40:16.386Z,34.90
2023-11-18T21:43:41.822Z,35.28
2023-11-18T21:46:57.684Z,44.95
2023-11-18T21:54:59.307Z,34.65
2023-11-18T22:02:14.349Z,59.50
2023-11-18T22:06:07.529Z,29.02
2023-11-18T22:10:13.529Z,63.45
2023-11-18T22:14:35.627Z,51.92
2023-11-18T22:17:54.714Z,56.10
2023-11-18T22:22:14.539Z,26.40
2023-11-18T22:25:16.919Z,12.15
2023-11-18T22:33:25.139Z,56.03
2023-11-18T22:42:24.961Z,26.05
2023-11-18T22:50:20.452Z,32.42
2023-11-18T22:58:28.608Z,49.15
2023-11-18T23:02:04.662Z,60.67
2023-11-18T23:05:42.474Z,34.25
2023-11-18T23:10:09.038Z,30.00
2023-11-18T23:13:21.650Z,27.03
2023-11-18T23:23:57.010Z,17.40
2023-11-18T23:27:26.589Z,27.10
2023-11-18T23:30:37.277Z,17.55
2023-11-18T23:34:23.532Z,72.38
2023-11-18T23:37:56.314Z,33.13
2023-11-18T23:41:02.423Z,19.55
2023-11-18T23:44:11.256Z,17.27
2023-11-18T23:47:15.865Z,11.43
2023-11-18T23:50:21.198Z,12.27
2023-11-18T23:54:05.555Z,12.90
2023-11-18T23:58:45.795Z,17.33
